createdAt,value
2023-02-05T00:01:45.906Z,1.40
2023-02-05T00:04:16.053Z,1.37
2023-02-05T00:06:46.118Z,1.34
2023-02-05T00:09:16.248Z,1.32
2023-02-05T00:11:46.537Z,1.29
2023-02-05T00:14:16.718Z,1.25
2023-02-05T00:16:50.226Z,1.25
2023-02-05T00:19:20.861Z,1.22
2023-02-05T00:21:50.918Z,1.16
2023-02-05T00:24:21.272Z,1.13
2023-02-05T00:26:51.363Z,1.12
2023-02-05T00:29:21.642Z,1.10
2023-02-05T00:31:54.522Z,1.06
2023-02-05T00:34:25.100Z,1.05
2023-02-05T00:36:56.296Z,1.04
2023-02-05T00:39:26.421Z,1.05
2023-02-05T00:41:56.613Z,1.05
2023-02-05T00:44:28.006Z,1.05
2023-02-05T00:47:00.934Z,1.07
2023-02-05T00:49:31.682Z,1.07
2023-02-05T00:52:02.126Z,1.07
2023-02-05T00:54:33.454Z,1.06
2023-02-05T00:57:03.567Z,1.06
2023-02-05T00:59:33.578Z,1.05
2023-02-05T01:02:06.373Z,1.04
2023-02-05T01:04:36.454Z,1.03
2023-02-05T01:07:06.841Z,1.01
2023-02-05T01:09:37.051Z,1.01
2023-02-05T01:12:07.505Z,0.99
2023-02-05T01:14:37.566Z,0.98
2023-02-05T01:17:10.360Z,0.96
2023-02-05T01:19:40.667Z,0.96
2023-02-05T01:22:11.618Z,0.95
2023-02-05T01:24:41.667Z,0.97
2023-02-05T01:27:11.843Z,0.97
2023-02-05T01:29:42.419Z,0.96
2023-02-05T01:32:15.236Z,0.96
2023-02-05T01:34:45.256Z,0.96
2023-02-05T01:37:15.784Z,0.93
2023-02-05T01:39:45.954Z,0.94
2023-02-05T01:42:20.744Z,0.93
2023-02-05T01:45:05.710Z,0.92
2023-02-05T01:47:38.379Z,0.90
2023-02-05T01:50:08.734Z,0.92
2023-02-05T01:52:38.917Z,0.92
2023-02-05T01:55:10.300Z,0.92
2023-02-05T01:57:40.832Z,0.89
2023-02-05T02:00:12.059Z,0.87
2023-02-05T02:02:47.753Z,0.86
2023-02-05T02:05:18.914Z,0.86
2023-02-05T02:07:49.241Z,0.85
2023-02-05T02:10:20.775Z,0.83
2023-02-05T02:12:51.500Z,0.80
2023-02-05T02:15:24.076Z,0.80
2023-02-05T02:18:19.732Z,0.80
2023-02-05T02:20:51.542Z,0.79
2023-02-05T02:23:27.524Z,0.81
2023-02-05T02:26:11.606Z,0.79
2023-02-05T02:28:46.620Z,0.79
2023-02-05T02:31:20.506Z,0.77
2023-02-05T02:33:53.386Z,0.78
2023-02-05T02:36:28.046Z,0.77
2023-02-05T02:39:02.832Z,0.78
2023-02-05T02:41:34.275Z,0.79
2023-02-05T02:44:12.163Z,0.78
2023-02-05T02:46:44.470Z,0.76
2023-02-05T02:49:17.651Z,0.76
2023-02-05T02:51:48.884Z,0.75
2023-02-05T02:54:20.777Z,0.76
2023-02-05T02:56:51.721Z,0.77
2023-02-05T02:59:26.507Z,0.78
2023-02-05T03:01:58.191Z,0.83
2023-02-05T03:04:31.180Z,0.92
2023-02-05T03:07:04.744Z,0.97
2023-02-05T03:09:37.836Z,1.03
2023-02-05T03:12:08.126Z,1.08
2023-02-05T03:14:41.480Z,1.09
2023-02-05T03:17:18.630Z,1.04
2023-02-05T03:19:51.642Z,1.11
2023-02-05T03:22:21.796Z,1.10
2023-02-05T03:24:53.484Z,1.07
2023-02-05T03:27:24.339Z,1.05
2023-02-05T03:29:57.984Z,1.03
2023-02-05T03:32:39.309Z,1.01
2023-02-05T03:35:19.488Z,1.00
2023-02-05T03:37:58.697Z,1.01
2023-02-05T03:40:34.124Z,1.05
2023-02-05T03:43:10.251Z,1.12
2023-02-05T03:45:52.859Z,1.20
2023-02-05T03:48:32.129Z,1.22
2023-02-05T03:51:05.592Z,1.27
2023-02-05T03:53:40.286Z,1.29
2023-02-05T03:56:13.810Z,1.30
2023-02-05T03:58:45.580Z,1.30
2023-02-05T04:01:18.516Z,1.32
2023-02-05T04:03:49.865Z,1.30
2023-02-05T04:06:20.236Z,1.32
2023-02-05T04:08:53.538Z,1.29
2023-02-05T04:11:24.413Z,1.28
2023-02-05T04:13:54.711Z,1.28
2023-02-05T04:16:27.723Z,1.28
2023-02-05T04:18:58.373Z,1.27
2023-02-05T04:21:30.338Z,1.23
2023-02-05T04:24:00.796Z,1.22
2023-02-05T04:26:31.509Z,1.20
2023-02-05T04:29:06.009Z,1.24
2023-02-05T04:31:44.854Z,1.28
2023-02-05T04:34:15.690Z,1.32
2023-02-05T04:36:45.992Z,1.38
2023-02-05T04:39:16.549Z,1.43
2023-02-05T04:41:46.842Z,1.45
2023-02-05T04:44:17.002Z,1.46
2023-02-05T04:46:50.000Z,1.48
2023-02-05T04:49:20.049Z,1.47
2023-02-05T04:51:50.079Z,1.48
2023-02-05T04:54:20.463Z,1.45
2023-02-05T04:56:50.673Z,1.48
2023-02-05T04:59:20.840Z,1.49
2023-02-05T05:01:53.526Z,1.51
2023-02-05T05:04:23.934Z,1.55
2023-02-05T05:06:54.356Z,1.53
2023-02-05T05:09:25.490Z,1.52
2023-02-05T05:11:56.273Z,1.54
2023-02-05T05:14:26.375Z,1.56
2023-02-05T05:16:59.307Z,1.61
2023-02-05T05:19:29.410Z,1.63
2023-02-05T05:21:59.828Z,1.65
2023-02-05T05:24:30.024Z,1.73
2023-02-05T05:27:00.105Z,1.77
2023-02-05T05:29:30.396Z,1.78
2023-02-05T05:32:03.442Z,1.79
2023-02-05T05:34:33.615Z,1.82
2023-02-05T05:37:03.722Z,1.85
2023-02-05T05:39:46.386Z,1.84
2023-02-05T05:42:28.941Z,1.81
2023-02-05T05:44:59.392Z,1.83
2023-02-05T05:47:32.027Z,1.84
2023-02-05T05:50:02.064Z,1.82
2023-02-05T05:52:32.910Z,1.83
2023-02-05T05:55:03.064Z,1.80
2023-02-05T05:57:33.834Z,1.80
2023-02-05T06:00:04.572Z,1.79
2023-02-05T06:02:45.773Z,1.77
2023-02-05T06:05:15.972Z,1.79
2023-02-05T06:07:46.314Z,1.78
2023-02-05T06:10:16.421Z,1.79
2023-02-05T06:12:46.850Z,1.73
2023-02-05T06:15:16.954Z,1.75
2023-02-05T06:17:49.867Z,1.76
2023-02-05T06:20:20.031Z,1.78
2023-02-05T06:22:50.147Z,1.88
2023-02-05T06:25:20.446Z,1.99
2023-02-05T06:27:50.558Z,2.08
2023-02-05T06:30:20.799Z,2.05
2023-02-05T06:32:53.661Z,2.04
2023-02-05T06:35:24.160Z,2.03
2023-02-05T06:37:54.201Z,2.07
2023-02-05T06:40:25.982Z,2.03
2023-02-05T06:42:56.084Z,2.08
2023-02-05T06:45:26.079Z,2.17
2023-02-05T06:47:59.173Z,2.18
2023-02-05T06:50:29.270Z,2.19
2023-02-05T06:52:59.714Z,2.17
2023-02-05T06:55:29.755Z,2.17
2023-02-05T06:57:59.812Z,2.13
2023-02-05T07:00:32.358Z,2.10
2023-02-05T07:03:08.454Z,2.10
2023-02-05T07:05:38.654Z,2.08
2023-02-05T07:08:09.359Z,2.09
2023-02-05T07:10:39.560Z,2.11
2023-02-05T07:13:09.818Z,2.09
2023-02-05T07:15:40.286Z,2.06
2023-02-05T07:18:13.024Z,2.06
2023-02-05T07:20:43.252Z,2.07
2023-02-05T07:23:13.333Z,2.06
2023-02-05T07:25:43.362Z,2.08
2023-02-05T07:28:13.651Z,2.10
2023-02-05T07:30:43.864Z,2.12
2023-02-05T07:33:16.677Z,2.14
2023-02-05T07:35:46.709Z,2.16
2023-02-05T07:38:16.966Z,2.21
2023-02-05T07:40:47.243Z,2.32
2023-02-05T07:43:17.433Z,2.35
2023-02-05T07:45:47.928Z,2.36
2023-02-05T07:48:23.974Z,2.36
2023-02-05T07:50:54.563Z,2.40
2023-02-05T07:53:24.882Z,2.45
2023-02-05T07:55:55.234Z,2.49
2023-02-05T07:58:25.578Z,2.55
2023-02-05T08:00:55.769Z,2.55
2023-02-05T08:03:28.932Z,2.58
2023-02-05T08:05:59.334Z,2.66
2023-02-05T08:08:29.492Z,2.76
2023-02-05T08:11:00.788Z,2.80
2023-02-05T08:13:31.068Z,2.89
2023-02-05T08:16:01.354Z,2.95
2023-02-05T08:18:34.018Z,2.99
2023-02-05T08:21:04.417Z,2.97
2023-02-05T08:23:34.547Z,3.02
2023-02-05T08:26:04.863Z,3.13
2023-02-05T08:28:34.980Z,3.08
2023-02-05T08:31:05.107Z,3.08
2023-02-05T08:33:37.880Z,3.08
2023-02-05T08:36:10.683Z,3.18
2023-02-05T08:38:41.212Z,3.24
2023-02-05T08:41:12.889Z,3.28
2023-02-05T08:43:44.464Z,3.26
2023-02-05T08:46:15.209Z,3.29
2023-02-05T08:48:48.703Z,3.33
2023-02-05T08:51:19.931Z,3.39
2023-02-05T08:53:50.073Z,3.39
2023-02-05T08:56:20.511Z,3.39
2023-02-05T08:58:50.618Z,3.41
2023-02-05T09:01:21.972Z,3.44
2023-02-05T09:03:54.793Z,3.54
2023-02-05T09:06:25.046Z,3.54
2023-02-05T09:08:55.386Z,3.48
2023-02-05T09:11:26.827Z,3.48
2023-02-05T09:13:56.956Z,3.49
2023-02-05T09:16:27.567Z,3.41
2023-02-05T09:19:01.311Z,3.48
2023-02-05T09:21:31.546Z,3.44
2023-02-05T09:24:02.222Z,3.36
2023-02-05T09:26:32.299Z,3.24
2023-02-05T09:29:02.388Z,3.20
2023-02-05T09:31:32.560Z,3.06
2023-02-05T09:34:07.229Z,3.02
2023-02-05T09:36:37.625Z,3.01
2023-02-05T09:39:15.996Z,3.06
2023-02-05T09:41:57.252Z,3.16
2023-02-05T09:44:34.597Z,3.19
2023-02-05T09:47:07.668Z,3.14
2023-02-05T09:49:42.116Z,3.18
2023-02-05T09:52:18.296Z,3.21
2023-02-05T09:54:51.259Z,3.25
2023-02-05T09:57:26.914Z,3.27
2023-02-05T09:59:57.062Z,3.30
2023-02-05T10:02:31.929Z,3.21
2023-02-05T10:05:05.526Z,3.16
2023-02-05T10:07:40.984Z,3.12
2023-02-05T10:10:26.315Z,3.08
2023-02-05T10:13:18.823Z,3.06
2023-02-05T10:15:58.267Z,3.08
2023-02-05T10:18:30.306Z,3.14
2023-02-05T10:21:10.335Z,3.15
2023-02-05T10:23:50.115Z,3.16
2023-02-05T10:26:20.833Z,3.24
2023-02-05T10:29:03.801Z,3.24
2023-02-05T10:31:42.300Z,3.19
2023-02-05T10:34:19.380Z,3.26
2023-02-05T10:36:55.003Z,3.29
2023-02-05T10:39:27.984Z,3.42
2023-02-05T10:42:02.114Z,3.44
2023-02-05T10:44:34.110Z,3.44
2023-02-05T10:47:07.960Z,3.53
2023-02-05T10:49:46.188Z,3.49
2023-02-05T10:52:19.556Z,3.47
2023-02-05T10:54:50.972Z,3.43
2023-02-05T10:57:22.497Z,3.44
2023-02-05T10:59:55.411Z,3.42
2023-02-05T11:02:29.383Z,3.42
2023-02-05T11:05:02.669Z,3.45
2023-02-05T11:07:38.520Z,3.51
2023-02-05T11:13:24.288Z,3.74
2023-02-05T11:15:58.338Z,3.90
2023-02-05T11:18:30.539Z,3.87
2023-02-05T11:21:02.862Z,3.83
2023-02-05T11:23:39.891Z,3.84
2023-02-05T11:26:12.347Z,4.00
2023-02-05T11:28:42.703Z,4.11
2023-02-05T11:31:24.192Z,4.25
2023-02-05T11:33:54.967Z,4.46
2023-02-05T11:36:26.741Z,4.31
2023-02-05T11:39:00.144Z,4.31
2023-02-05T11:41:31.365Z,4.41
2023-02-05T11:44:02.504Z,4.31
2023-02-05T11:46:35.486Z,4.23
2023-02-05T11:49:06.228Z,4.28
2023-02-05T11:51:42.728Z,4.44
2023-02-05T11:54:20.601Z,4.35
2023-02-05T11:57:05.178Z,4.30
2023-02-05T11:59:35.865Z,4.46
2023-02-05T12:02:22.125Z,4.42
2023-02-05T12:04:52.662Z,4.31
2023-02-05T12:07:24.750Z,4.24
2023-02-05T12:09:59.908Z,4.16
2023-02-05T12:12:33.009Z,4.15
2023-02-05T12:15:10.364Z,4.11
2023-02-05T12:17:42.674Z,3.95
2023-02-05T12:20:23.100Z,3.83
2023-02-05T12:23:08.004Z,3.71
2023-02-05T12:25:44.470Z,3.65
2023-02-05T12:28:23.095Z,3.63
2023-02-05T12:31:00.209Z,3.61
2023-02-05T12:33:39.653Z,3.64
2023-02-05T12:36:17.842Z,3.73
2023-02-05T12:38:53.741Z,3.77
2023-02-05T12:41:32.228Z,3.79
2023-02-05T12:44:11.657Z,3.84
2023-02-05T12:46:50.515Z,3.80
2023-02-05T12:49:30.247Z,3.82
2023-02-05T12:52:06.950Z,3.78
2023-02-05T12:54:55.092Z,3.80
2023-02-05T12:57:29.670Z,3.76
2023-02-05T13:00:05.981Z,3.79
2023-02-05T13:02:38.866Z,3.83
2023-02-05T13:05:18.667Z,3.91
2023-02-05T13:07:50.438Z,3.98
2023-02-05T13:10:23.904Z,4.12
2023-02-05T13:13:00.720Z,4.18
2023-02-05T13:15:36.074Z,4.23
2023-02-05T13:18:09.276Z,4.27
2023-02-05T13:20:53.989Z,4.19
2023-02-05T13:23:36.760Z,4.19
2023-02-05T13:26:20.470Z,4.29
2023-02-05T13:28:55.179Z,4.34
2023-02-05T13:31:28.539Z,4.57
2023-02-05T13:34:00.400Z,4.74
2023-02-05T13:36:45.368Z,4.92
2023-02-05T13:39:34.610Z,4.92
2023-02-05T13:42:19.685Z,4.83
2023-02-05T13:45:03.064Z,4.81
2023-02-05T13:47:47.861Z,4.97
2023-02-05T13:50:37.556Z,4.99
2023-02-05T13:53:26.627Z,4.85
2023-02-05T13:56:11.506Z,4.60
2023-02-05T13:58:45.800Z,4.44
2023-02-05T14:01:23.037Z,4.52
2023-02-05T14:03:58.946Z,4.47
2023-02-05T14:06:33.518Z,4.60
2023-02-05T14:09:05.745Z,4.79
2023-02-05T14:11:55.900Z,4.92
2023-02-05T14:14:28.042Z,4.94
2023-02-05T14:17:01.232Z,4.93
2023-02-05T14:19:46.292Z,4.96
2023-02-05T14:22:36.274Z,4.91
2023-02-05T14:25:06.643Z,4.84
2023-02-05T14:27:52.172Z,4.87
2023-02-05T14:30:37.784Z,4.88
2023-02-05T14:33:26.482Z,4.89
2023-02-05T14:36:01.115Z,4.98
2023-02-05T14:38:34.043Z,5.03
2023-02-05T14:41:05.407Z,5.02
2023-02-05T14:43:37.353Z,5.02
2023-02-05T14:46:09.282Z,5.00
2023-02-05T14:48:43.758Z,4.92
2023-02-05T14:51:23.773Z,4.86
2023-02-05T14:53:57.964Z,4.78
2023-02-05T14:56:31.930Z,4.72
2023-02-05T14:59:05.274Z,4.59
2023-02-05T15:01:46.832Z,4.48
2023-02-05T15:04:23.717Z,4.39
2023-02-05T15:06:56.648Z,4.35
2023-02-05T15:09:34.851Z,4.43
2023-02-05T15:12:20.064Z,4.53
2023-02-05T15:14:54.704Z,4.57
2023-02-05T15:17:39.750Z,4.59
2023-02-05T15:20:19.545Z,4.62
2023-02-05T15:22:54.019Z,4.67
2023-02-05T15:25:30.725Z,4.57
2023-02-05T15:28:04.124Z,4.45
2023-02-05T15:30:36.351Z,4.32
2023-02-05T15:33:08.583Z,4.34
2023-02-05T15:35:40.306Z,4.37
2023-02-05T15:38:22.789Z,4.38
2023-02-05T15:40:53.500Z,4.40
2023-02-05T15:43:24.823Z,4.43
2023-02-05T15:45:55.470Z,4.39
2023-02-05T15:48:27.921Z,4.34
2023-02-05T15:50:59.208Z,4.27
2023-02-05T15:53:39.143Z,4.25
2023-02-05T15:56:11.407Z,4.24
2023-02-05T15:58:43.463Z,4.28
2023-02-05T16:01:13.659Z,4.29
2023-02-05T16:03:43.724Z,4.26
2023-02-05T16:06:21.282Z,4.17
2023-02-05T16:08:55.439Z,4.00
2023-02-05T16:11:29.776Z,3.91
2023-02-05T16:14:07.104Z,3.80
2023-02-05T16:16:39.883Z,3.83
2023-02-05T16:19:14.037Z,3.89
2023-02-05T16:21:46.364Z,3.88
2023-02-05T16:24:24.969Z,3.89
2023-02-05T16:26:57.317Z,3.78
2023-02-05T16:29:39.022Z,3.69
2023-02-05T16:32:19.204Z,3.63
2023-02-05T16:34:49.554Z,3.67
2023-02-05T16:37:21.094Z,3.81
2023-02-05T16:39:57.756Z,3.93
2023-02-05T16:42:38.078Z,3.98
2023-02-05T16:45:21.657Z,4.01
2023-02-05T16:48:13.126Z,4.03
2023-02-05T16:50:45.599Z,4.00
2023-02-05T16:53:17.699Z,4.05
2023-02-05T16:55:51.174Z,4.01
2023-02-05T16:58:23.512Z,4.08
2023-02-05T17:00:58.105Z,4.12
2023-02-05T17:03:29.159Z,4.08
2023-02-05T17:06:00.561Z,4.04
2023-02-05T17:08:33.619Z,3.96
2023-02-05T17:11:09.021Z,3.95
2023-02-05T17:13:43.320Z,3.97
2023-02-05T17:16:37.585Z,3.85
2023-02-05T17:19:08.376Z,3.77
2023-02-05T17:21:39.430Z,3.69
2023-02-05T17:24:10.935Z,3.63
2023-02-05T17:26:46.338Z,3.73
2023-02-05T17:29:17.547Z,3.82
2023-02-05T17:31:47.732Z,3.85
2023-02-05T17:34:17.877Z,3.87
2023-02-05T17:36:48.216Z,3.92
2023-02-05T17:39:18.255Z,3.95
2023-02-05T17:42:08.498Z,3.96
2023-02-05T17:44:39.116Z,3.96
2023-02-05T17:47:09.452Z,3.93
2023-02-05T17:49:39.596Z,3.89
2023-02-05T17:52:09.675Z,3.85
2023-02-05T17:54:39.945Z,3.87
2023-02-05T17:57:17.780Z,3.92
2023-02-05T17:59:48.053Z,3.96
2023-02-05T18:02:18.651Z,3.93
2023-02-05T18:04:48.777Z,3.88
2023-02-05T18:07:22.525Z,3.85
2023-02-05T18:09:52.645Z,3.84
2023-02-05T18:12:25.672Z,3.86
2023-02-05T18:14:55.868Z,3.85
2023-02-05T18:17:26.144Z,3.85
2023-02-05T18:19:56.289Z,3.84
2023-02-05T18:22:26.287Z,3.83
2023-02-05T18:24:56.401Z,3.80
2023-02-05T18:27:29.106Z,3.76
2023-02-05T18:29:59.510Z,3.77
2023-02-05T18:32:29.928Z,3.76
2023-02-05T18:35:00.064Z,3.65
2023-02-05T18:37:30.110Z,3.68
2023-02-05T18:40:00.200Z,3.72
2023-02-05T18:42:32.914Z,3.68
2023-02-05T18:45:03.205Z,3.69
2023-02-05T18:47:33.689Z,3.62
2023-02-05T18:50:03.802Z,3.58
2023-02-05T18:52:34.049Z,3.58
2023-02-05T18:55:04.125Z,3.55
2023-02-05T18:57:36.788Z,3.47
2023-02-05T19:00:07.518Z,3.48
2023-02-05T19:02:37.689Z,3.50
2023-02-05T19:05:08.458Z,3.46
2023-02-05T19:07:39.155Z,3.51
2023-02-05T19:10:09.580Z,3.49
2023-02-05T19:12:42.273Z,3.48
2023-02-05T19:15:12.583Z,3.48
2023-02-05T19:17:42.714Z,3.49
2023-02-05T19:20:13.246Z,3.49
2023-02-05T19:22:43.439Z,3.51
2023-02-05T19:25:13.647Z,3.53
2023-02-05T19:27:46.420Z,3.53
2023-02-05T19:30:16.860Z,3.51
2023-02-05T19:32:47.099Z,3.52
2023-02-05T19:35:17.341Z,3.53
2023-02-05T19:37:47.536Z,3.52
2023-02-05T19:40:18.995Z,3.54
2023-02-05T19:42:51.760Z,3.54
2023-02-05T19:45:23.125Z,3.47
2023-02-05T19:47:53.279Z,3.46
2023-02-05T19:50:23.361Z,3.46
2023-02-05T19:52:55.097Z,3.41
2023-02-05T19:55:25.574Z,3.42
2023-02-05T19:57:58.291Z,3.42
2023-02-05T20:00:28.332Z,3.46
2023-02-05T20:02:58.864Z,3.53
2023-02-05T20:05:28.976Z,3.50
2023-02-05T20:07:59.189Z,3.53
2023-02-05T20:10:29.399Z,3.57
2023-02-05T20:13:02.449Z,3.57
2023-02-05T20:15:32.960Z,3.59
2023-02-05T20:18:03.085Z,3.59
2023-02-05T20:20:34.021Z,3.59
2023-02-05T20:23:04.244Z,3.59
2023-02-05T20:25:34.373Z,3.60
2023-02-05T20:28:07.467Z,3.56
2023-02-05T20:30:50.176Z,3.58
2023-02-05T20:33:20.354Z,3.56
2023-02-05T20:35:50.421Z,3.53
2023-02-05T20:38:20.544Z,3.51
2023-02-05T20:40:50.579Z,3.49
2023-02-05T20:43:23.151Z,3.45
2023-02-05T20:45:53.227Z,3.42
2023-02-05T20:48:23.465Z,3.40
2023-02-05T20:50:53.679Z,3.43
2023-02-05T20:53:23.777Z,3.48
2023-02-05T20:55:53.948Z,3.49
2023-02-05T20:58:26.764Z,3.53
2023-02-05T21:00:57.178Z,3.52
2023-02-05T21:03:27.445Z,3.52
2023-02-05T21:05:59.695Z,3.52
2023-02-05T21:08:29.883Z,3.49
2023-02-05T21:10:59.932Z,3.48
2023-02-05T21:13:35.599Z,3.52
2023-02-05T21:16:06.542Z,3.51
2023-02-05T21:18:38.191Z,3.50
2023-02-05T21:21:08.972Z,3.53
2023-02-05T21:23:39.081Z,3.55
2023-02-05T21:26:09.703Z,3.52
2023-02-05T21:28:42.364Z,3.50
2023-02-05T21:31:12.629Z,3.47
2023-02-05T21:33:42.930Z,3.46
2023-02-05T21:36:14.076Z,3.48
2023-02-05T21:38:44.971Z,3.54
2023-02-05T21:41:16.567Z,3.58
2023-02-05T21:43:50.314Z,3.64
2023-02-05T21:46:21.310Z,3.58
2023-02-05T21:48:52.044Z,3.49
2023-02-05T21:51:23.733Z,3.58
2023-02-05T21:53:57.338Z,3.62
2023-02-05T21:56:29.268Z,3.61
2023-02-05T21:59:02.167Z,3.61
2023-02-05T22:01:33.713Z,3.60
2023-02-05T22:04:04.820Z,3.60
2023-02-05T22:06:36.263Z,3.61
2023-02-05T22:09:08.419Z,3.66
2023-02-05T22:11:39.523Z,3.66
2023-02-05T22:14:13.027Z,3.64
2023-02-05T22:16:43.623Z,3.61
2023-02-05T22:19:13.980Z,3.59
2023-02-05T22:21:45.406Z,3.55
2023-02-05T22:24:17.306Z,3.48
2023-02-05T22:26:48.241Z,3.46
2023-02-05T22:29:22.238Z,3.47
2023-02-05T22:31:54.124Z,3.49
2023-02-05T22:34:24.596Z,3.54
2023-02-05T22:36:54.611Z,3.54
2023-02-05T22:39:25.018Z,3.53
2023-02-05T22:41:55.316Z,3.61
2023-02-05T22:44:30.035Z,3.67
2023-02-05T22:47:00.071Z,3.73
2023-02-05T22:49:30.150Z,3.73
2023-02-05T22:52:00.282Z,3.74
2023-02-05T22:54:30.644Z,3.73
2023-02-05T22:57:00.852Z,3.74
2023-02-05T22:59:33.663Z,3.77
2023-02-05T23:02:03.827Z,3.78
2023-02-05T23:04:33.996Z,3.72
2023-02-05T23:07:04.042Z,3.68
2023-02-05T23:09:34.556Z,3.68
2023-02-05T23:12:07.120Z,3.63
2023-02-05T23:14:39.774Z,3.60
2023-02-05T23:17:09.855Z,3.62
2023-02-05T23:19:39.999Z,3.64
2023-02-05T23:22:11.088Z,3.64
2023-02-05T23:24:41.168Z,3.64
2023-02-05T23:27:11.299Z,3.65
2023-02-05T23:29:44.038Z,3.64
2023-02-05T23:32:15.114Z,3.63
2023-02-05T23:35:00.228Z,3.60
2023-02-05T23:37:30.445Z,3.61
2023-02-05T23:40:00.697Z,3.60
2023-02-05T23:42:30.956Z,3.55
2023-02-05T23:45:03.674Z,3.52
2023-02-05T23:47:34.088Z,3.52
2023-02-05T23:50:04.672Z,3.55
2023-02-05T23:52:35.106Z,3.52
2023-02-05T23:55:05.133Z,3.45
2023-02-05T23:57:35.298Z,3.33
